Time,TemperatureF,DewpointF,PressureIn,WindDirection,WindDirectionDegrees,WindSpeedMPH,WindSpeedGustMPH,Humidity,HourlyPrecipIn,Conditions,Clouds,dailyrainin,SolarRadiationWatts/m^2,SoftwareType,DateUTC
2013-11-14 00:04:00,35.8,17.0,30.09,SSW,209,4.0,-999.0,46,-99.99,,,0.00,0,weatherlink.com 1.10,2013-11-14 05:04:00,
2013-11-14 00:19:00,36.0,16.0,30.09,SE,128,6.0,-999.0,45,-99.99,,,0.00,0,weatherlink.com 1.10,2013-11-14 05:19:00,
2013-11-14 00:34:00,36.1,16.0,30.09,SSW,192,1.0,-999.0,44,-99.99,,,0.00,0,weatherlink.com 1.10,2013-11-14 05:34:00,
2013-11-14 00:49:00,36.2,16.0,30.08,SE,138,0.0,-999.0,44,-99.99,,,0.00,0,weatherlink.com 1.10,2013-11-14 05:49:00,
2013-11-14 01:04:00,36.3,16.0,30.07,SW,219,5.0,-999.0,43,-99.99,,,0.00,0,weatherlink.com 1.10,2013-11-14 06:04:00,
2013-11-14 01:19:00,36.5,15.0,30.07,SE,141,5.0,-999.0,42,-99.99,,,0.00,0,weatherlink.com 1.10,2013-11-14 06:19:00,
2013-11-14 01:34:00,36.8,16.0,30.07,SSW,207,6.0,-999.0,42,-99.99,,,0.00,0,weatherlink.com 1.10,2013-11-14 06:34:00,
2013-11-14 01:49:00,36.6,16.0,30.07,SW,223,2.0,-999.0,43,-99.99,,,0.00,0,weatherlink.com 1.10,2013-11-14 06:49:00,
2013-11-14 02:04:00,36.4,16.0,30.07,SW,232,5.0,-999.0,43,-99.99,,,0.00,0,weatherlink.com 1.10,2013-11-14 07:04:00,
2013-11-14 02:19:00,36.2,16.0,30.07,SW,234,2.0,-999.0,43,-99.99,,,0.00,0,weatherlink.com 1.10,2013-11-14 07:19:00,
2013-11-14 02:34:00,35.9,16.0,30.07,SSW,213,6.0,-999.0,44,-99.99,,,0.00,0,weatherlink.com 1.10,2013-11-14 07:34:00,
2013-11-14 02:49:00,36.0,15.0,30.08,WSW,241,4.0,-999.0,43,-99.99,,,0.00,0,weatherlink.com 1.10,2013-11-14 07:49:00,
2013-11-14 03:04:00,36.0,15.0,30.08,WSW,257,1.0,-999.0,43,-99.99,,,0.00,0,weatherlink.com 1.10,2013-11-14 08:04:00,
2013-11-14 03:19:00,35.7,16.0,30.09,WSW,243,0.0,-999.0,44,-99.99,,,0.00,0,weatherlink.com 1.10,2013-11-14 08:19:00,
2013-11-14 03:34:00,35.2,16.0,30.09,WSW,243,0.0,-999.0,45,-99.99,,,0.00,0,weatherlink.com 1.10,2013-11-14 08:34:00,
2013-11-14 03:49:00,34.1,15.0,30.09,WSW,243,0.0,-999.0,46,-99.99,,,0.00,0,weatherlink.com 1.10,2013-11-14 08:49:00,
2013-11-14 04:04:00,33.0,16.0,30.09,WSW,243,0.0,-999.0,49,-99.99,,,0.00,0,weatherlink.com 1.10,2013-11-14 09:04:00,
2013-11-14 04:19:00,32.4,16.0,30.09,WSW,243,0.0,-999.0,50,-99.99,,,0.00,0,weatherlink.com 1.10,2013-11-14 09:19:00,
2013-11-14 04:34:00,32.0,16.0,30.09,WSW,243,0.0,-999.0,53,-99.99,,,0.00,0,weatherlink.com 1.10,2013-11-14 09:34:00,
2013-11-14 04:49:00,31.7,16.0,30.09,WSW,243,0.0,-999.0,53,-99.99,,,0.00,0,weatherlink.com 1.10,2013-11-14 09:49:00,
2013-11-14 05:04:00,32.1,16.0,30.09,South,180,0.0,-999.0,51,-99.99,,,0.00,0,weatherlink.com 1.10,2013-11-14 10:04:00,
2013-11-14 05:19:00,33.7,16.0,30.09,SW,228,6.0,-999.0,48,-99.99,,,0.00,0,weatherlink.com 1.10,2013-11-14 10:19:00,
2013-11-14 05:34:00,34.8,16.0,30.09,SSW,201,9.0,-999.0,47,-99.99,,,0.00,0,weatherlink.com 1.10,2013-11-14 10:34:00,
2013-11-14 05:49:00,35.2,17.0,30.09,West,267,4.0,-999.0,47,-99.99,,,0.00,0,weatherlink.com 1.10,2013-11-14 10:49:00,
2013-11-14 06:04:00,35.9,18.0,30.09,WSW,257,9.0,-999.0,49,-99.99,,,0.00,0,weatherlink.com 1.10,2013-11-14 11:04:00,
2013-11-14 06:19:00,-999.0,-99.9,30.09,North,-999,-999.0,-999.0,-999,-99.99,,,0.00,,weatherlink.com 1.10,2013-11-14 11:19:00,
2013-11-14 06:35:00,-999.0,-99.9,30.09,North,-999,-999.0,-999.0,-999,-99.99,,,0.00,,weatherlink.com 1.10,2013-11-14 11:35:00,
2013-11-14 06:50:00,-999.0,-99.9,30.10,North,-999,-999.0,-999.0,-999,-99.99,,,0.00,,weatherlink.com 1.10,2013-11-14 11:50:00,
2013-11-14 07:05:00,-999.0,-99.9,30.10,North,-999,-999.0,-999.0,-999,-99.99,,,0.00,,weatherlink.com 1.10,2013-11-14 12:05:00,
2013-11-14 07:20:00,-999.0,-99.9,30.11,North,-999,-999.0,-999.0,-999,-99.99,,,0.00,,weatherlink.com 1.10,2013-11-14 12:20:00,
2013-11-14 07:35:00,-999.0,-99.9,30.12,North,-999,-999.0,-999.0,-999,-99.99,,,0.00,,weatherlink.com 1.10,2013-11-14 12:35:00,
2013-11-14 07:50:00,-999.0,-99.9,30.11,North,-999,-999.0,-999.0,-999,-99.99,,,0.00,,weatherlink.com 1.10,2013-11-14 12:50:00,
2013-11-14 08:05:00,-999.0,-99.9,30.12,North,-999,-999.0,-999.0,-999,-99.99,,,0.00,,weatherlink.com 1.10,2013-11-14 13:05:00,
2013-11-14 08:20:00,-999.0,-99.9,30.12,North,-999,-999.0,-999.0,-999,-99.99,,,0.00,,weatherlink.com 1.10,2013-11-14 13:20:00,
2013-11-14 08:35:00,-999.0,-99.9,30.12,North,-999,-999.0,-999.0,-999,-99.99,,,0.00,,weatherlink.com 1.10,2013-11-14 13:35:00,
2013-11-14 08:50:00,-999.0,-99.9,30.12,North,-999,-999.0,-999.0,-999,-99.99,,,0.00,,weatherlink.com 1.10,2013-11-14 13:50:00,
2013-11-14 09:05:00,-999.0,-99.9,30.12,North,-999,-999.0,-999.0,-999,-99.99,,,0.00,,weatherlink.com 1.10,2013-11-14 14:05:00,
2013-11-14 09:20:00,-999.0,-99.9,30.11,North,-999,-999.0,-999.0,-999,-99.99,,,0.00,,weatherlink.com 1.10,2013-11-14 14:20:00,
2013-11-14 09:35:00,-999.0,-99.9,30.11,North,-999,-999.0,-999.0,-999,-99.99,,,0.00,,weatherlink.com 1.10,2013-11-14 14:35:00,
2013-11-14 09:51:00,-999.0,-99.9,30.11,North,-999,-999.0,-999.0,-999,-99.99,,,0.00,,weatherlink.com 1.10,2013-11-14 14:51:00,
2013-11-14 10:06:00,-999.0,-99.9,30.11,North,-999,-999.0,-999.0,-999,-99.99,,,0.00,,weatherlink.com 1.10,2013-11-14 15:06:00,
2013-11-14 10:21:00,-999.0,-99.9,30.12,North,-999,-999.0,-999.0,-999,-99.99,,,0.00,,weatherlink.com 1.10,2013-11-14 15:21:00,
2013-11-14 10:36:00,-999.0,-99.9,30.11,North,-999,-999.0,-999.0,-999,-99.99,,,0.00,,weatherlink.com 1.10,2013-11-14 15:36:00,
2013-11-14 10:51:00,43.2,27.0,30.11,SSW,200,9.0,-999.0,53,-99.99,,,0.01,457,weatherlink.com 1.10,2013-11-14 15:51:00,
2013-11-14 11:06:00,43.5,27.0,30.11,SSE,159,10.0,-999.0,52,-99.99,,,0.03,308,weatherlink.com 1.10,2013-11-14 16:06:00,
2013-11-14 11:21:00,43.9,27.0,30.10,WSW,254,8.0,-999.0,51,-99.99,,,0.04,285,weatherlink.com 1.10,2013-11-14 16:21:00,
2013-11-14 11:36:00,44.1,26.0,30.09,SSW,209,7.0,-999.0,50,-99.99,,,0.05,374,weatherlink.com 1.10,2013-11-14 16:36:00,
2013-11-14 11:51:00,44.9,27.0,30.09,South,191,8.0,-999.0,49,-99.99,,,0.07,392,weatherlink.com 1.10,2013-11-14 16:51:00,
2013-11-14 12:06:00,45.3,25.0,30.08,SE,135,10.0,-999.0,46,-99.99,,,0.08,297,weatherlink.com 1.10,2013-11-14 17:06:00,
2013-11-14 12:21:00,45.6,25.0,30.07,WSW,240,4.0,-999.0,45,-99.99,,,0.09,345,weatherlink.com 1.10,2013-11-14 17:21:00,
2013-11-14 12:36:00,45.7,24.0,30.06,WSW,248,0.0,-999.0,42,-99.99,,,0.10,476,weatherlink.com 1.10,2013-11-14 17:36:00,
2013-11-14 12:51:00,46.4,24.0,30.06,SE,146,3.0,-999.0,41,-99.99,,,0.12,362,weatherlink.com 1.10,2013-11-14 17:51:00,
2013-11-14 13:06:00,47.2,24.0,30.06,West,265,11.0,-999.0,40,-99.99,,,0.13,439,weatherlink.com 1.10,2013-11-14 18:06:00,
2013-11-14 13:21:00,47.9,23.0,30.05,South,186,5.0,-999.0,38,-99.99,,,0.14,397,weatherlink.com 1.10,2013-11-14 18:21:00,
2013-11-14 13:36:00,48.5,24.0,30.04,South,190,4.0,-999.0,38,-99.99,,,0.16,346,weatherlink.com 1.10,2013-11-14 18:36:00,
2013-11-14 13:51:00,49.5,24.0,30.04,SSW,193,2.0,-999.0,37,-99.99,,,0.17,362,weatherlink.com 1.10,2013-11-14 18:51:00,
2013-11-14 14:06:00,50.4,25.0,30.04,SW,223,9.0,-999.0,37,-99.99,,,0.18,364,weatherlink.com 1.10,2013-11-14 19:06:00,
2013-11-14 14:21:00,51.0,24.0,30.04,SW,214,2.0,-999.0,35,-99.99,,,0.20,327,weatherlink.com 1.10,2013-11-14 19:21:00,
2013-11-14 14:38:00,51.7,24.0,30.04,South,176,1.0,-999.0,34,-99.99,,,0.21,288,weatherlink.com 1.10,2013-11-14 19:38:00,
2013-11-14 14:51:00,52.2,22.0,30.04,SSE,150,0.0,-999.0,31,-99.99,,,0.23,255,weatherlink.com 1.10,2013-11-14 19:51:00,
2013-11-14 15:06:00,52.8,22.0,30.03,SSE,150,1.0,-999.0,30,-99.99,,,0.24,220,weatherlink.com 1.10,2013-11-14 20:06:00,
2013-11-14 15:21:00,53.2,22.0,30.03,WSW,239,3.0,-999.0,30,-99.99,,,0.25,183,weatherlink.com 1.10,2013-11-14 20:21:00,
2013-11-14 15:37:00,53.2,22.0,30.03,South,178,1.0,-999.0,30,-99.99,,,0.25,137,weatherlink.com 1.10,2013-11-14 20:37:00,
2013-11-14 15:52:00,52.9,22.0,30.03,SSE,163,5.0,-999.0,30,-99.99,,,0.27,83,weatherlink.com 1.10,2013-11-14 20:52:00,
2013-11-14 16:07:00,52.3,22.0,30.03,South,184,0.0,-999.0,30,-99.99,,,0.28,19,weatherlink.com 1.10,2013-11-14 21:07:00,
2013-11-14 16:22:00,51.9,21.0,30.03,SSE,154,1.0,-999.0,30,-99.99,,,0.28,14,weatherlink.com 1.10,2013-11-14 21:22:00,
2013-11-14 16:37:00,51.0,20.0,30.03,SSW,207,3.0,-999.0,30,-99.99,,,0.29,7,weatherlink.com 1.10,2013-11-14 21:37:00,
2013-11-14 16:52:00,50.0,20.0,30.03,SSW,200,0.0,-999.0,31,-99.99,,,0.29,0,weatherlink.com 1.10,2013-11-14 21:52:00,
2013-11-14 17:07:00,49.0,19.0,30.03,SSW,200,1.0,-999.0,30,-99.99,,,0.29,0,weatherlink.com 1.10,2013-11-14 22:07:00,
2013-11-14 17:22:00,48.1,19.0,30.02,South,178,5.0,-999.0,31,-99.99,,,0.30,0,weatherlink.com 1.10,2013-11-14 22:22:00,
2013-11-14 17:37:00,48.2,18.0,30.02,SW,215,0.0,-999.0,30,-99.99,,,0.30,0,weatherlink.com 1.10,2013-11-14 22:37:00,
2013-11-14 17:52:00,48.1,17.0,30.02,SW,223,0.0,-999.0,29,-99.99,,,0.30,0,weatherlink.com 1.10,2013-11-14 22:52:00,
2013-11-14 18:07:00,48.0,16.0,30.02,South,178,2.0,-999.0,28,-99.99,,,0.30,0,weatherlink.com 1.10,2013-11-14 23:07:00,
2013-11-14 18:22:00,48.1,15.0,30.02,SW,221,0.0,-999.0,27,-99.99,,,0.30,0,weatherlink.com 1.10,2013-11-14 23:22:00,
2013-11-14 18:37:00,47.8,15.0,30.02,SSE,154,5.0,-999.0,27,-99.99,,,0.30,0,weatherlink.com 1.10,2013-11-14 23:37:00,
2013-11-14 18:52:00,47.7,17.0,30.02,SSE,155,0.0,-999.0,29,-99.99,,,0.31,0,weatherlink.com 1.10,2013-11-14 23:52:00,
2013-11-14 19:07:00,44.5,18.0,30.02,SSE,155,4.0,-999.0,34,-99.99,,,0.31,0,weatherlink.com 1.10,2013-11-15 00:07:00,
2013-11-14 19:22:00,43.1,17.0,30.02,SSE,153,3.0,-999.0,35,-99.99,,,0.31,0,weatherlink.com 1.10,2013-11-15 00:22:00,
2013-11-14 19:37:00,42.9,17.0,30.02,SSE,153,0.0,-999.0,36,-99.99,,,0.31,0,weatherlink.com 1.10,2013-11-15 00:37:00,
2013-11-14 19:52:00,42.0,18.0,30.02,SSE,153,2.0,-999.0,38,-99.99,,,0.31,0,weatherlink.com 1.10,2013-11-15 00:52:00,
2013-11-14 20:07:00,41.2,18.0,30.02,SSE,153,4.0,-999.0,40,-99.99,,,0.31,0,weatherlink.com 1.10,2013-11-15 01:07:00,
2013-11-14 20:22:00,41.3,18.0,30.02,SSE,147,4.0,-999.0,40,-99.99,,,0.31,0,weatherlink.com 1.10,2013-11-15 01:22:00,
2013-11-14 20:37:00,40.9,19.0,30.02,SE,146,3.0,-999.0,41,-99.99,,,0.31,0,weatherlink.com 1.10,2013-11-15 01:37:00,
2013-11-14 20:52:00,40.5,18.0,30.02,SE,146,4.0,-999.0,41,-99.99,,,0.31,0,weatherlink.com 1.10,2013-11-15 01:52:00,
2013-11-14 21:07:00,40.0,19.0,30.02,SE,146,5.0,-999.0,43,-99.99,,,0.31,0,weatherlink.com 1.10,2013-11-15 02:07:00,
2013-11-14 21:22:00,39.7,19.0,30.02,SE,146,3.0,-999.0,44,-99.99,,,0.31,0,weatherlink.com 1.10,2013-11-15 02:22:00,
2013-11-14 21:37:00,39.0,20.0,30.02,SE,146,0.0,-999.0,46,-99.99,,,0.31,0,weatherlink.com 1.10,2013-11-15 02:37:00,
2013-11-14 21:52:00,38.6,21.0,30.03,SE,146,4.0,-999.0,49,-99.99,,,0.31,0,weatherlink.com 1.10,2013-11-15 02:52:00,
2013-11-14 22:07:00,38.3,20.0,30.03,SE,146,4.0,-999.0,48,-99.99,,,0.31,0,weatherlink.com 1.10,2013-11-15 03:07:00,
2013-11-14 22:22:00,38.4,20.0,30.03,SE,146,3.0,-999.0,48,-99.99,,,0.31,0,weatherlink.com 1.10,2013-11-15 03:22:00,
2013-11-14 22:37:00,38.8,20.0,30.04,SE,145,5.0,-999.0,48,-99.99,,,0.31,0,weatherlink.com 1.10,2013-11-15 03:37:00,
2013-11-14 22:52:00,38.6,21.0,30.04,SE,145,0.0,-999.0,49,-99.99,,,0.31,0,weatherlink.com 1.10,2013-11-15 03:52:00,
2013-11-14 23:07:00,38.2,21.0,30.04,SE,145,1.0,-999.0,50,-99.99,,,0.31,0,weatherlink.com 1.10,2013-11-15 04:07:00,
2013-11-14 23:22:00,37.1,22.0,30.04,SE,145,0.0,-999.0,54,-99.99,,,0.31,0,weatherlink.com 1.10,2013-11-15 04:22:00,
2013-11-14 23:37:00,36.8,21.0,30.05,SE,145,4.0,-999.0,54,-99.99,,,0.31,0,weatherlink.com 1.10,2013-11-15 04:37:00,
2013-11-14 23:52:00,37.9,21.0,30.05,SE,142,4.0,-999.0,50,-99.99,,,0.31,0,weatherlink.com 1.10,2013-11-15 04:52:00,